sensor_id;sensor_type;location;lat;lon;timestamp;temperature;humidity
45765;DHT22;31474;45.332;10.230;2023-04-01T00:01:26;11.70;99.90
45765;DHT22;31474;45.332;10.230;2023-04-01T00:03:51;11.70;99.90
45765;DHT22;31474;45.332;10.230;2023-04-01T00:06:19;11.70;99.90
45765;DHT22;31474;45.332;10.230;2023-04-01T00:08:45;11.80;99.90
45765;DHT22;31474;45.332;10.230;2023-04-01T00:11:12;11.70;99.90
45765;DHT22;31474;45.332;10.230;2023-04-01T00:13:37;11.70;99.90
45765;DHT22;31474;45.332;10.230;2023-04-01T00:16:03;11.60;99.90
45765;DHT22;31474;45.332;10.230;2023-04-01T00:18:30;11.50;99.90
45765;DHT22;31474;45.332;10.230;2023-04-01T00:20:56;11.40;99.90
45765;DHT22;31474;45.332;10.230;2023-04-01T00:23:21;11.40;99.90
45765;DHT22;31474;45.332;10.230;2023-04-01T00:25:48;11.30;99.90
45765;DHT22;31474;45.332;10.230;2023-04-01T00:28:19;11.20;99.90
45765;DHT22;31474;45.332;10.230;2023-04-01T00:30:45;11.20;99.90
45765;DHT22;31474;45.332;10.230;2023-04-01T00:33:11;11.10;99.90
45765;DHT22;31474;45.332;10.230;2023-04-01T00:35:36;11.10;99.90
45765;DHT22;31474;45.332;10.230;2023-04-01T00:38:02;11.10;99.90
45765;DHT22;31474;45.332;10.230;2023-04-01T00:40:32;11.10;99.90
45765;DHT22;31474;45.332;10.230;2023-04-01T00:42:58;11.10;99.90
45765;DHT22;31474;45.332;10.230;2023-04-01T00:47:52;11.10;99.90
45765;DHT22;31474;45.332;10.230;2023-04-01T00:50:19;11.10;99.90
45765;DHT22;31474;45.332;10.230;2023-04-01T00:52:45;11.10;99.90
45765;DHT22;31474;45.332;10.230;2023-04-01T00:55:12;11.10;99.90
45765;DHT22;31474;45.332;10.230;2023-04-01T00:57:40;11.10;99.90
45765;DHT22;31474;45.332;10.230;2023-04-01T01:00:10;11.10;99.90
45765;DHT22;31474;45.332;10.230;2023-04-01T01:02:38;11.10;99.90
45765;DHT22;31474;45.332;10.230;2023-04-01T01:05:05;11.00;99.90
45765;DHT22;31474;45.332;10.230;2023-04-01T01:12:46;11.00;99.90
45765;DHT22;31474;45.332;10.230;2023-04-01T01:18:09;11.00;99.90
45765;DHT22;31474;45.332;10.230;2023-04-01T01:31:48;10.90;99.90
45765;DHT22;31474;45.332;10.230;2023-04-01T01:37:12;10.90;99.90
45765;DHT22;31474;45.332;10.230;2023-04-01T01:39:40;10.90;99.90
45765;DHT22;31474;45.332;10.230;2023-04-01T01:42:09;10.90;99.90
45765;DHT22;31474;45.332;10.230;2023-04-01T01:44:37;10.90;99.90
45765;DHT22;31474;45.332;10.230;2023-04-01T01:47:03;10.90;99.90
45765;DHT22;31474;45.332;10.230;2023-04-01T01:49:31;10.90;99.90
45765;DHT22;31474;45.332;10.230;2023-04-01T01:51:57;10.90;99.90
45765;DHT22;31474;45.332;10.230;2023-04-01T01:54:23;10.90;99.90
45765;DHT22;31474;45.332;10.230;2023-04-01T01:56:51;10.90;99.90
45765;DHT22;31474;45.332;10.230;2023-04-01T01:59:22;10.90;99.90
45765;DHT22;31474;45.332;10.230;2023-04-01T02:01:51;10.90;99.90
45765;DHT22;31474;45.332;10.230;2023-04-01T02:04:19;10.80;99.90
45765;DHT22;31474;45.332;10.230;2023-04-01T02:06:53;10.90;99.90
45765;DHT22;31474;45.332;10.230;2023-04-01T02:09:20;10.90;99.90
45765;DHT22;31474;45.332;10.230;2023-04-01T02:11:50;10.90;99.90
45765;DHT22;31474;45.332;10.230;2023-04-01T02:14:29;10.80;99.90
45765;DHT22;31474;45.332;10.230;2023-04-01T02:17:06;10.80;99.90
45765;DHT22;31474;45.332;10.230;2023-04-01T02:19:39;10.80;99.90
45765;DHT22;31474;45.332;10.230;2023-04-01T02:22:10;10.70;99.90
45765;DHT22;31474;45.332;10.230;2023-04-01T02:24:37;10.70;99.90
45765;DHT22;31474;45.332;10.230;2023-04-01T02:27:05;10.70;99.90
45765;DHT22;31474;45.332;10.230;2023-04-01T02:29:31;10.70;99.90
45765;DHT22;31474;45.332;10.230;2023-04-01T02:31:58;10.70;99.90
45765;DHT22;31474;45.332;10.230;2023-04-01T02:34:24;10.60;99.90
45765;DHT22;31474;45.332;10.230;2023-04-01T02:36:50;10.50;99.90
45765;DHT22;31474;45.332;10.230;2023-04-01T02:39:16;10.50;99.90
45765;DHT22;31474;45.332;10.230;2023-04-01T02:41:44;10.40;99.90
45765;DHT22;31474;45.332;10.230;2023-04-01T02:44:11;10.50;99.90
45765;DHT22;31474;45.332;10.230;2023-04-01T02:46:38;10.50;99.90
45765;DHT22;31474;45.332;10.230;2023-04-01T02:49:04;10.50;99.90
45765;DHT22;31474;45.332;10.230;2023-04-01T02:51:31;10.50;99.90
45765;DHT22;31474;45.332;10.230;2023-04-01T02:53:56;10.50;99.90
45765;DHT22;31474;45.332;10.230;2023-04-01T02:56:22;10.50;99.90
45765;DHT22;31474;45.332;10.230;2023-04-01T02:58:48;10.50;99.90
45765;DHT22;31474;45.332;10.230;2023-04-01T03:01:14;10.60;99.90
45765;DHT22;31474;45.332;10.230;2023-04-01T03:03:40;10.50;99.90
45765;DHT22;31474;45.332;10.230;2023-04-01T03:06:10;10.50;99.90
45765;DHT22;31474;45.332;10.230;2023-04-01T03:08:36;10.50;99.90
45765;DHT22;31474;45.332;10.230;2023-04-01T03:11:02;10.50;99.90
45765;DHT22;31474;45.332;10.230;2023-04-01T03:13:28;10.50;99.90
45765;DHT22;31474;45.332;10.230;2023-04-01T03:15:54;10.50;99.90
45765;DHT22;31474;45.332;10.230;2023-04-01T03:18:20;10.50;99.90
45765;DHT22;31474;45.332;10.230;2023-04-01T03:20:45;10.50;99.90
45765;DHT22;31474;45.332;10.230;2023-04-01T03:23:11;10.50;99.90
45765;DHT22;31474;45.332;10.230;2023-04-01T03:25:37;10.40;99.90
45765;DHT22;31474;45.332;10.230;2023-04-01T03:28:03;10.40;99.90
45765;DHT22;31474;45.332;10.230;2023-04-01T03:30:29;10.40;99.90
45765;DHT22;31474;45.332;10.230;2023-04-01T03:32:59;10.40;99.90
45765;DHT22;31474;45.332;10.230;2023-04-01T03:35:26;10.30;99.90
45765;DHT22;31474;45.332;10.230;2023-04-01T03:37:53;10.40;99.90
45765;DHT22;31474;45.332;10.230;2023-04-01T03:40:19;10.30;99.90
45765;DHT22;31474;45.332;10.230;2023-04-01T03:42:45;10.30;99.90
45765;DHT22;31474;45.332;10.230;2023-04-01T03:45:11;10.30;99.90
45765;DHT22;31474;45.332;10.230;2023-04-01T03:47:39;10.30;99.90
45765;DHT22;31474;45.332;10.230;2023-04-01T03:50:06;10.30;99.90
45765;DHT22;31474;45.332;10.230;2023-04-01T03:52:33;10.20;99.90
45765;DHT22;31474;45.332;10.230;2023-04-01T03:54:59;10.20;99.90
45765;DHT22;31474;45.332;10.230;2023-04-01T03:57:25;10.30;99.90
45765;DHT22;31474;45.332;10.230;2023-04-01T03:59:51;10.30;99.90
45765;DHT22;31474;45.332;10.230;2023-04-01T04:02:17;10.20;99.90
45765;DHT22;31474;45.332;10.230;2023-04-01T04:04:43;10.20;99.90
45765;DHT22;31474;45.332;10.230;2023-04-01T04:07:08;10.20;99.90
45765;DHT22;31474;45.332;10.230;2023-04-01T04:09:34;10.20;99.90
45765;DHT22;31474;45.332;10.230;2023-04-01T04:12:00;10.10;99.90
45765;DHT22;31474;45.332;10.230;2023-04-01T04:14:26;10.10;99.90
45765;DHT22;31474;45.332;10.230;2023-04-01T04:16:52;10.20;99.90
45765;DHT22;31474;45.332;10.230;2023-04-01T04:19:18;10.10;99.90
45765;DHT22;31474;45.332;10.230;2023-04-01T04:21:43;10.10;99.90
45765;DHT22;31474;45.332;10.230;2023-04-01T04:24:09;10.10;99.90
45765;DHT22;31474;45.332;10.230;2023-04-01T04:26:35;10.10;99.90
45765;DHT22;31474;45.332;10.230;2023-04-01T04:29:01;10.10;99.90
45765;DHT22;31474;45.332;10.230;2023-04-01T04:31:27;10.10;99.90
45765;DHT22;31474;45.332;10.230;2023-04-01T04:33:53;10.10;99.90
45765;DHT22;31474;45.332;10.230;2023-04-01T04:36:20;10.00;99.90
45765;DHT22;31474;45.332;10.230;2023-04-01T04:38:46;10.00;99.90
45765;DHT22;31474;45.332;10.230;2023-04-01T04:41:13;10.00;99.90
45765;DHT22;31474;45.332;10.230;2023-04-01T04:43:40;10.00;99.90
45765;DHT22;31474;45.332;10.230;2023-04-01T04:46:10;10.00;99.90
45765;DHT22;31474;45.332;10.230;2023-04-01T04:48:36;10.00;99.90
45765;DHT22;31474;45.332;10.230;2023-04-01T04:51:02;10.00;99.90
45765;DHT22;31474;45.332;10.230;2023-04-01T04:53:28;9.90;99.90
45765;DHT22;31474;45.332;10.230;2023-04-01T04:55:55;9.90;99.90
45765;DHT22;31474;45.332;10.230;2023-04-01T04:58:20;9.90;99.90
45765;DHT22;31474;45.332;10.230;2023-04-01T05:00:47;9.80;99.90
45765;DHT22;31474;45.332;10.230;2023-04-01T05:03:13;9.80;99.90
45765;DHT22;31474;45.332;10.230;2023-04-01T05:05:39;9.80;99.90
45765;DHT22;31474;45.332;10.230;2023-04-01T05:08:06;9.80;99.90
45765;DHT22;31474;45.332;10.230;2023-04-01T05:10:32;9.70;99.90
45765;DHT22;31474;45.332;10.230;2023-04-01T05:12:58;9.80;99.90
45765;DHT22;31474;45.332;10.230;2023-04-01T05:15:24;9.70;99.90
45765;DHT22;31474;45.332;10.230;2023-04-01T05:17:49;9.70;99.90
45765;DHT22;31474;45.332;10.230;2023-04-01T05:20:15;9.70;99.90
45765;DHT22;31474;45.332;10.230;2023-04-01T05:22:42;9.70;99.90
45765;DHT22;31474;45.332;10.230;2023-04-01T05:25:08;9.70;99.90
45765;DHT22;31474;45.332;10.230;2023-04-01T05:27:34;9.70;99.90
45765;DHT22;31474;45.332;10.230;2023-04-01T05:30:00;9.40;99.90
45765;DHT22;31474;45.332;10.230;2023-04-01T05:32:25;9.30;99.90
45765;DHT22;31474;45.332;10.230;2023-04-01T05:34:52;9.30;99.90
45765;DHT22;31474;45.332;10.230;2023-04-01T05:37:17;9.20;99.90
45765;DHT22;31474;45.332;10.230;2023-04-01T05:39:43;9.10;99.90
45765;DHT22;31474;45.332;10.230;2023-04-01T05:42:09;9.20;99.90
45765;DHT22;31474;45.332;10.230;2023-04-01T05:44:35;9.30;99.90
45765;DHT22;31474;45.332;10.230;2023-04-01T05:47:02;9.20;99.90
45765;DHT22;31474;45.332;10.230;2023-04-01T05:49:28;9.30;99.90
45765;DHT22;31474;45.332;10.230;2023-04-01T05:51:53;9.40;99.90
45765;DHT22;31474;45.332;10.230;2023-04-01T05:54:19;9.60;99.90
45765;DHT22;31474;45.332;10.230;2023-04-01T05:56:45;9.80;99.90
45765;DHT22;31474;45.332;10.230;2023-04-01T05:59:11;9.80;99.90
45765;DHT22;31474;45.332;10.230;2023-04-01T06:01:37;10.00;99.90
45765;DHT22;31474;45.332;10.230;2023-04-01T06:04:03;10.20;99.90
45765;DHT22;31474;45.332;10.230;2023-04-01T06:06:30;10.40;99.90
45765;DHT22;31474;45.332;10.230;2023-04-01T06:09:18;10.50;99.90
45765;DHT22;31474;45.332;10.230;2023-04-01T06:26:02;11.60;99.90
45765;DHT22;31474;45.332;10.230;2023-04-01T06:48:42;13.30;99.90
45765;DHT22;31474;45.332;10.230;2023-04-01T06:54:04;13.60;99.90
45765;DHT22;31474;45.332;10.230;2023-04-01T06:56:32;13.80;99.90
45765;DHT22;31474;45.332;10.230;2023-04-01T06:59:44;14.00;99.90
45765;DHT22;31474;45.332;10.230;2023-04-01T07:02:16;14.20;99.90
45765;DHT22;31474;45.332;10.230;2023-04-01T07:04:46;14.40;99.90
45765;DHT22;31474;45.332;10.230;2023-04-01T07:07:35;14.60;99.90
45765;DHT22;31474;45.332;10.230;2023-04-01T07:10:06;14.70;99.90
45765;DHT22;31474;45.332;10.230;2023-04-01T07:12:44;14.80;99.90
45765;DHT22;31474;45.332;10.230;2023-04-01T07:15:19;14.80;99.90
45765;DHT22;31474;45.332;10.230;2023-04-01T07:17:48;15.00;99.90
45765;DHT22;31474;45.332;10.230;2023-04-01T07:20:18;15.10;99.90
45765;DHT22;31474;45.332;10.230;2023-04-01T07:22:50;15.30;99.90
45765;DHT22;31474;45.332;10.230;2023-04-01T07:25:42;15.50;99.90
45765;DHT22;31474;45.332;10.230;2023-04-01T07:28:16;15.60;99.90
45765;DHT22;31474;45.332;10.230;2023-04-01T07:33:19;16.10;99.90
45765;DHT22;31474;45.332;10.230;2023-04-01T07:35:57;16.30;99.90
45765;DHT22;31474;45.332;10.230;2023-04-01T07:38:56;16.40;99.90
45765;DHT22;31474;45.332;10.230;2023-04-01T07:49:44;16.90;99.90
45765;DHT22;31474;45.332;10.230;2023-04-01T07:52:20;17.10;99.90
45765;DHT22;31474;45.332;10.230;2023-04-01T07:54:56;17.20;99.80
45765;DHT22;31474;45.332;10.230;2023-04-01T08:03:31;17.60;99.40
45765;DHT22;31474;45.332;10.230;2023-04-01T08:09:21;17.90;98.70
45765;DHT22;31474;45.332;10.230;2023-04-01T08:20:39;18.10;98.20
45765;DHT22;31474;45.332;10.230;2023-04-01T08:23:31;18.20;97.40
45765;DHT22;31474;45.332;10.230;2023-04-01T08:29:10;18.40;98.20
45765;DHT22;31474;45.332;10.230;2023-04-01T08:34:20;18.70;98.80
45765;DHT22;31474;45.332;10.230;2023-04-01T08:36:51;18.90;98.00
45765;DHT22;31474;45.332;10.230;2023-04-01T08:39:21;18.90;98.20
45765;DHT22;31474;45.332;10.230;2023-04-01T08:52:40;19.20;97.90
45765;DHT22;31474;45.332;10.230;2023-04-01T09:00:31;19.40;96.80
45765;DHT22;31474;45.332;10.230;2023-04-01T09:05:56;19.50;97.60
45765;DHT22;31474;45.332;10.230;2023-04-01T09:21:01;19.90;96.00
45765;DHT22;31474;45.332;10.230;2023-04-01T09:26:34;19.80;96.20
45765;DHT22;31474;45.332;10.230;2023-04-01T09:34:38;20.10;96.40
45765;DHT22;31474;45.332;10.230;2023-04-01T09:37:20;20.10;96.20
45765;DHT22;31474;45.332;10.230;2023-04-01T09:40:23;20.10;95.50
45765;DHT22;31474;45.332;10.230;2023-04-01T09:45:33;20.30;97.10
45765;DHT22;31474;45.332;10.230;2023-04-01T09:48:46;20.20;97.10
45765;DHT22;31474;45.332;10.230;2023-04-01T09:51:36;20.30;97.00
45765;DHT22;31474;45.332;10.230;2023-04-01T09:57:07;20.40;95.80
45765;DHT22;31474;45.332;10.230;2023-04-01T10:22:40;20.60;96.00
45765;DHT22;31474;45.332;10.230;2023-04-01T10:36:48;21.00;93.70
45765;DHT22;31474;45.332;10.230;2023-04-01T10:48:22;21.10;93.40
45765;DHT22;31474;45.332;10.230;2023-04-01T10:53:52;21.10;93.70
45765;DHT22;31474;45.332;10.230;2023-04-01T10:56:43;21.20;92.70
45765;DHT22;31474;45.332;10.230;2023-04-01T11:15:37;21.50;90.90
45765;DHT22;31474;45.332;10.230;2023-04-01T11:18:37;21.50;91.00
45765;DHT22;31474;45.332;10.230;2023-04-01T12:00:39;22.00;87.40
45765;DHT22;31474;45.332;10.230;2023-04-01T12:03:27;22.10;86.60
45765;DHT22;31474;45.332;10.230;2023-04-01T12:06:02;22.20;81.00
45765;DHT22;31474;45.332;10.230;2023-04-01T12:09:02;22.20;85.00
45765;DHT22;31474;45.332;10.230;2023-04-01T12:14:28;22.20;77.40
45765;DHT22;31474;45.332;10.230;2023-04-01T12:23:28;22.40;80.10
45765;DHT22;31474;45.332;10.230;2023-04-01T12:26:13;22.40;81.40
45765;DHT22;31474;45.332;10.230;2023-04-01T12:29:04;22.50;80.20
45765;DHT22;31474;45.332;10.230;2023-04-01T12:34:24;22.70;74.10
45765;DHT22;31474;45.332;10.230;2023-04-01T12:39:48;22.90;78.00
45765;DHT22;31474;45.332;10.230;2023-04-01T12:55:45;23.00;75.10
45765;DHT22;31474;45.332;10.230;2023-04-01T13:26:59;22.80;73.60
45765;DHT22;31474;45.332;10.230;2023-04-01T13:41:05;22.50;74.20
45765;DHT22;31474;45.332;10.230;2023-04-01T13:43:45;22.50;71.60
45765;DHT22;31474;45.332;10.230;2023-04-01T13:49:19;22.60;72.00
45765;DHT22;31474;45.332;10.230;2023-04-01T13:52:38;22.60;71.70
45765;DHT22;31474;45.332;10.230;2023-04-01T13:58:12;22.40;70.00
45765;DHT22;31474;45.332;10.230;2023-04-01T14:09:36;22.00;68.40
45765;DHT22;31474;45.332;10.230;2023-04-01T14:18:01;21.90;68.20
45765;DHT22;31474;45.332;10.230;2023-04-01T14:23:22;22.00;67.80
45765;DHT22;31474;45.332;10.230;2023-04-01T14:40:03;21.80;71.50
45765;DHT22;31474;45.332;10.230;2023-04-01T14:42:54;21.80;65.30
45765;DHT22;31474;45.332;10.230;2023-04-01T14:48:32;21.90;67.50
45765;DHT22;31474;45.332;10.230;2023-04-01T14:57:22;21.90;67.50
45765;DHT22;31474;45.332;10.230;2023-04-01T14:59:28;21.90;68.60
45765;DHT22;31474;45.332;10.230;2023-04-01T15:01:57;21.90;70.30
45765;DHT22;31474;45.332;10.230;2023-04-01T15:04:40;21.90;70.20
45765;DHT22;31474;45.332;10.230;2023-04-01T15:11:05;21.60;65.60
45765;DHT22;31474;45.332;10.230;2023-04-01T15:19:31;21.50;65.70
45765;DHT22;31474;45.332;10.230;2023-04-01T15:27:52;21.40;64.80
45765;DHT22;31474;45.332;10.230;2023-04-01T15:43:47;20.70;68.60
45765;DHT22;31474;45.332;10.230;2023-04-01T16:01:51;20.60;66.80
45765;DHT22;31474;45.332;10.230;2023-04-01T16:08:16;20.60;66.60
45765;DHT22;31474;45.332;10.230;2023-04-01T16:16:19;20.60;67.90
45765;DHT22;31474;45.332;10.230;2023-04-01T16:19:22;20.60;70.00
45765;DHT22;31474;45.332;10.230;2023-04-01T16:22:14;20.50;68.40
45765;DHT22;31474;45.332;10.230;2023-04-01T16:24:46;20.50;67.40
45765;DHT22;31474;45.332;10.230;2023-04-01T16:27:33;20.40;69.30
45765;DHT22;31474;45.332;10.230;2023-04-01T16:33:00;20.30;69.50
45765;DHT22;31474;45.332;10.230;2023-04-01T16:35:43;20.30;69.20
45765;DHT22;31474;45.332;10.230;2023-04-01T16:38:36;20.20;68.70
45765;DHT22;31474;45.332;10.230;2023-04-01T16:43:50;20.10;68.30
45765;DHT22;31474;45.332;10.230;2023-04-01T16:46:32;20.00;69.50
45765;DHT22;31474;45.332;10.230;2023-04-01T16:59:44;19.70;73.10
45765;DHT22;31474;45.332;10.230;2023-04-01T17:02:14;19.70;73.70
45765;DHT22;31474;45.332;10.230;2023-04-01T17:15:31;19.30;71.40
45765;DHT22;31474;45.332;10.230;2023-04-01T17:20:54;19.10;74.50
45765;DHT22;31474;45.332;10.230;2023-04-01T17:23:22;19.00;73.80
45765;DHT22;31474;45.332;10.230;2023-04-01T17:42:39;18.30;76.40
45765;DHT22;31474;45.332;10.230;2023-04-01T17:50:22;18.10;77.80
45765;DHT22;31474;45.332;10.230;2023-04-01T17:53:19;18.00;78.10
45765;DHT22;31474;45.332;10.230;2023-04-01T18:06:55;17.50;76.80
45765;DHT22;31474;45.332;10.230;2023-04-01T18:23:35;17.10;77.10
45765;DHT22;31474;45.332;10.230;2023-04-01T18:26:04;17.00;75.90
45765;DHT22;31474;45.332;10.230;2023-04-01T18:28:44;17.00;78.00
45765;DHT22;31474;45.332;10.230;2023-04-01T18:31:20;17.00;78.20
45765;DHT22;31474;45.332;10.230;2023-04-01T18:39:35;16.90;80.20
45765;DHT22;31474;45.332;10.230;2023-04-01T18:48:27;16.70;76.80
45765;DHT22;31474;45.332;10.230;2023-04-01T18:50:58;16.60;77.10
45765;DHT22;31474;45.332;10.230;2023-04-01T18:53:29;16.60;77.90
45765;DHT22;31474;45.332;10.230;2023-04-01T18:58:35;16.50;76.80
45765;DHT22;31474;45.332;10.230;2023-04-01T19:01:07;16.50;75.90
45765;DHT22;31474;45.332;10.230;2023-04-01T19:06:28;16.40;74.70
45765;DHT22;31474;45.332;10.230;2023-04-01T19:09:23;16.40;74.90
45765;DHT22;31474;45.332;10.230;2023-04-01T19:25:57;16.30;75.50
45765;DHT22;31474;45.332;10.230;2023-04-01T19:28:49;16.20;76.00
45765;DHT22;31474;45.332;10.230;2023-04-01T19:34:22;16.20;75.50
45765;DHT22;31474;45.332;10.230;2023-04-01T19:37:07;16.10;76.80
45765;DHT22;31474;45.332;10.230;2023-04-01T19:48:00;16.00;75.60
45765;DHT22;31474;45.332;10.230;2023-04-01T19:53:50;16.00;77.00
45765;DHT22;31474;45.332;10.230;2023-04-01T19:55:59;16.00;76.20
45765;DHT22;31474;45.332;10.230;2023-04-01T20:01:03;15.80;80.40
45765;DHT22;31474;45.332;10.230;2023-04-01T20:06:13;15.60;80.60
45765;DHT22;31474;45.332;10.230;2023-04-01T20:17:17;15.10;81.80
45765;DHT22;31474;45.332;10.230;2023-04-01T20:19:54;15.10;81.20
45765;DHT22;31474;45.332;10.230;2023-04-01T20:22:29;15.10;81.10
45765;DHT22;31474;45.332;10.230;2023-04-01T20:25:05;15.10;81.10
45765;DHT22;31474;45.332;10.230;2023-04-01T20:27:38;15.10;82.70
45765;DHT22;31474;45.332;10.230;2023-04-01T20:33:21;15.00;83.10
45765;DHT22;31474;45.332;10.230;2023-04-01T20:41:40;15.10;82.70
45765;DHT22;31474;45.332;10.230;2023-04-01T20:47:41;15.10;81.10
45765;DHT22;31474;45.332;10.230;2023-04-01T20:52:47;15.10;80.90
45765;DHT22;31474;45.332;10.230;2023-04-01T20:55:33;15.10;80.90
45765;DHT22;31474;45.332;10.230;2023-04-01T21:04:03;14.90;78.50
45765;DHT22;31474;45.332;10.230;2023-04-01T21:12:28;15.00;79.80
45765;DHT22;31474;45.332;10.230;2023-04-01T21:25:40;15.20;82.80
45765;DHT22;31474;45.332;10.230;2023-04-01T21:31:27;14.90;85.60
45765;DHT22;31474;45.332;10.230;2023-04-01T21:36:40;14.40;85.40
45765;DHT22;31474;45.332;10.230;2023-04-01T21:42:07;14.50;84.50
45765;DHT22;31474;45.332;10.230;2023-04-01T21:44:45;14.50;84.60
45765;DHT22;31474;45.332;10.230;2023-04-01T22:06:40;14.20;89.70
45765;DHT22;31474;45.332;10.230;2023-04-01T22:09:52;14.20;90.60
45765;DHT22;31474;45.332;10.230;2023-04-01T22:12:20;14.30;91.30
45765;DHT22;31474;45.332;10.230;2023-04-01T22:26:24;14.40;94.10
45765;DHT22;31474;45.332;10.230;2023-04-01T22:29:14;14.30;94.20
45765;DHT22;31474;45.332;10.230;2023-04-01T22:32:05;14.40;95.10
45765;DHT22;31474;45.332;10.230;2023-04-01T22:35:39;14.20;95.90
45765;DHT22;31474;45.332;10.230;2023-04-01T22:37:37;14.20;95.60
45765;DHT22;31474;45.332;10.230;2023-04-01T22:42:52;14.00;96.70
45765;DHT22;31474;45.332;10.230;2023-04-01T22:56:46;13.70;98.90
45765;DHT22;31474;45.332;10.230;2023-04-01T23:02:03;13.70;98.90
45765;DHT22;31474;45.332;10.230;2023-04-01T23:04:37;13.70;98.10
45765;DHT22;31474;45.332;10.230;2023-04-01T23:09:50;13.70;99.30
45765;DHT22;31474;45.332;10.230;2023-04-01T23:12:19;13.70;98.90
45765;DHT22;31474;45.332;10.230;2023-04-01T23:14:58;13.60;99.90
45765;DHT22;31474;45.332;10.230;2023-04-01T23:20:17;13.50;99.90
45765;DHT22;31474;45.332;10.230;2023-04-01T23:26:10;13.50;99.90
45765;DHT22;31474;45.332;10.230;2023-04-01T23:31:31;13.30;99.90
45765;DHT22;31474;45.332;10.230;2023-04-01T23:36:43;13.30;99.90
45765;DHT22;31474;45.332;10.230;2023-04-01T23:41:48;13.20;99.90
45765;DHT22;31474;45.332;10.230;2023-04-01T23:44:14;13.20;99.90
45765;DHT22;31474;45.332;10.230;2023-04-01T23:46:42;13.20;99.90
45765;DHT22;31474;45.332;10.230;2023-04-01T23:49:35;13.20;99.90
45765;DHT22;31474;45.332;10.230;2023-04-01T23:52:05;13.20;99.90
45765;DHT22;31474;45.332;10.230;2023-04-01T23:54:58;13.30;99.90
45765;DHT22;31474;45.332;10.230;2023-04-01T23:57:32;13.40;99.90
